Time;durP1;ratioP1;P1;durP2;ratioP2;P2;SDS_P1;SDS_P2;PMS_P1;PMS_P2;Temp;Humidity;BMP_temperature;BMP_pressure;BME280_temperature;BME280_humidity;BME280_pressure;Samples;Min_cycle;Max_cycle;Signal;HPM_P1;HPM_P2
2022/02/20 00:01:17;;;;;;;16.03;14.50;;;7.30;99.90;;;;;;5045140;28;20467;-69
2022/02/20 00:03:45;;;;;;;14.77;13.47;;;7.20;99.90;;;;;;5029167;28;20464;-69
2022/02/20 00:06:12;;;;;;;15.67;14.00;;;7.20;99.90;;;;;;5041749;28;20487;-70
2022/02/20 00:08:41;;;;;;;13.90;12.80;;;7.10;99.90;;;;;;5039578;28;20479;-69
2022/02/20 00:11:08;;;;;;;14.03;12.60;;;7.00;99.90;;;;;;5040543;28;20463;-70
2022/02/20 00:13:36;;;;;;;14.20;12.80;;;6.90;99.90;;;;;;5043696;28;20490;-69
2022/02/20 00:16:04;;;;;;;13.93;12.93;;;6.80;99.90;;;;;;5041014;28;20491;-69
2022/02/20 00:18:31;;;;;;;13.87;12.57;;;6.80;99.90;;;;;;5038513;28;20921;-70
2022/02/20 00:20:58;;;;;;;12.97;11.77;;;6.70;99.90;;;;;;5040530;28;20566;-69
2022/02/20 00:23:26;;;;;;;12.53;11.77;;;6.60;99.90;;;;;;5038756;28;20465;-70
2022/02/20 00:25:55;;;;;;;12.33;11.30;;;6.50;99.90;;;;;;5039268;28;20560;-70
2022/02/20 00:28:23;;;;;;;12.23;11.53;;;6.50;99.90;;;;;;5036861;28;20483;-69
2022/02/20 00:30:50;;;;;;;13.67;12.57;;;6.40;99.90;;;;;;5043531;28;20464;-69
2022/02/20 00:33:17;;;;;;;12.13;11.40;;;6.30;99.90;;;;;;5038120;28;20456;-69
2022/02/20 00:35:44;;;;;;;14.27;12.40;;;6.30;99.90;;;;;;5042073;28;20491;-70
2022/02/20 00:38:13;;;;;;;12.67;11.03;;;6.30;99.90;;;;;;5040275;28;20460;-69
2022/02/20 00:40:40;;;;;;;17.53;12.23;;;6.40;99.90;;;;;;5040025;28;20940;-69
2022/02/20 00:43:09;;;;;;;13.17;11.87;;;6.50;99.90;;;;;;5035146;28;20460;-70
2022/02/20 00:45:36;;;;;;;12.27;11.47;;;6.50;99.90;;;;;;5033266;28;20504;-69
2022/02/20 00:48:04;;;;;;;14.37;12.33;;;6.60;99.90;;;;;;5043043;28;20462;-70
2022/02/20 00:50:31;;;;;;;13.27;12.33;;;6.60;99.90;;;;;;5041693;28;20466;-69
2022/02/20 00:52:59;;;;;;;12.93;11.63;;;6.70;99.90;;;;;;5037531;28;20561;-69
2022/02/20 00:55:26;;;;;;;15.37;12.10;;;6.60;99.90;;;;;;5037536;28;20476;-69
2022/02/20 00:57:54;;;;;;;13.97;12.43;;;6.70;99.90;;;;;;5037426;28;20465;-69
2022/02/20 01:00:23;;;;;;;12.50;11.50;;;6.70;99.90;;;;;;5042527;28;20469;-70
2022/02/20 01:02:50;;;;;;;12.87;12.00;;;6.70;99.90;;;;;;5032279;28;20474;-70
2022/02/20 01:05:17;;;;;;;14.73;11.80;;;6.70;99.90;;;;;;5044957;28;20492;-69
2022/02/20 01:07:45;;;;;;;28.10;13.40;;;6.60;99.90;;;;;;5040581;28;20464;-69
2022/02/20 01:10:13;;;;;;;13.53;12.53;;;6.50;99.90;;;;;;5045811;28;20541;-69
2022/02/20 01:12:40;;;;;;;14.07;13.00;;;6.50;99.90;;;;;;5042493;28;20470;-69
2022/02/20 01:15:09;;;;;;;13.50;12.53;;;6.40;99.90;;;;;;5036086;28;20471;-69
2022/02/20 01:17:37;;;;;;;14.33;13.33;;;6.40;99.90;;;;;;5045190;28;20921;-70
2022/02/20 01:20:05;;;;;;;14.80;13.70;;;6.20;99.90;;;;;;5044460;28;20492;-70
2022/02/20 01:22:33;;;;;;;14.70;13.40;;;6.20;99.90;;;;;;5036686;28;21025;-70
2022/02/20 01:25:00;;;;;;;14.67;13.43;;;6.10;99.90;;;;;;5044174;28;20989;-70
2022/02/20 01:27:29;;;;;;;13.33;12.40;;;6.00;99.90;;;;;;5045604;28;20472;-70
2022/02/20 01:29:56;;;;;;;14.13;12.90;;;5.80;99.90;;;;;;5042914;28;20468;-70
2022/02/20 01:32:23;;;;;;;14.50;13.40;;;5.60;99.90;;;;;;5041398;28;20470;-69
2022/02/20 01:34:51;;;;;;;15.90;14.47;;;5.50;99.90;;;;;;5041683;28;20468;-70
2022/02/20 01:37:18;;;;;;;14.30;13.10;;;5.30;99.90;;;;;;5037218;28;20469;-70
2022/02/20 01:39:45;;;;;;;13.70;12.70;;;5.20;99.90;;;;;;5043989;28;20487;-70
2022/02/20 01:42:13;;;;;;;14.43;13.30;;;5.10;99.90;;;;;;5042847;28;20839;-70
2022/02/20 01:44:40;;;;;;;14.10;13.13;;;5.00;99.90;;;;;;5039705;28;20463;-70
2022/02/20 01:47:11;;;;;;;14.00;12.90;;;5.00;99.90;;;;;;5040107;28;20488;-70
2022/02/20 01:49:39;;;;;;;13.87;12.53;;;4.90;99.90;;;;;;5043654;28;20473;-70
2022/02/20 01:52:08;;;;;;;15.03;13.50;;;4.80;99.90;;;;;;5040897;28;20470;-69
2022/02/20 01:54:36;;;;;;;15.17;13.97;;;4.70;99.90;;;;;;5043668;28;20824;-70
2022/02/20 01:57:05;;;;;;;15.53;14.10;;;4.60;99.90;;;;;;5041077;28;20548;-70
2022/02/20 01:59:32;;;;;;;15.43;14.07;;;4.60;99.90;;;;;;5039202;28;20962;-70
2022/02/20 02:02:00;;;;;;;16.33;13.90;;;4.50;99.90;;;;;;5042339;28;20513;-70
2022/02/20 02:04:27;;;;;;;15.33;13.90;;;4.50;99.90;;;;;;5039266;28;20464;-70
2022/02/20 02:06:53;;;;;;;14.30;13.23;;;4.50;99.90;;;;;;5045145;28;20848;-70
2022/02/20 02:09:21;;;;;;;16.47;15.20;;;4.50;99.90;;;;;;5037165;28;20461;-69
2022/02/20 02:11:49;;;;;;;17.23;15.10;;;4.50;99.90;;;;;;5040686;28;20745;-69
2022/02/20 02:14:16;;;;;;;16.20;14.50;;;4.50;99.90;;;;;;5038421;28;20490;-69
2022/02/20 02:16:43;;;;;;;15.70;14.10;;;4.50;99.90;;;;;;5043744;28;20475;-70
2022/02/20 02:19:10;;;;;;;15.83;14.27;;;4.50;99.90;;;;;;5038000;28;20488;-70
2022/02/20 02:21:38;;;;;;;15.33;14.23;;;4.40;99.90;;;;;;5045334;28;20461;-70
2022/02/20 02:24:09;;;;;;;15.53;14.33;;;4.30;99.90;;;;;;5046309;28;20554;-70
2022/02/20 02:26:37;;;;;;;13.80;12.67;;;4.30;99.90;;;;;;5044151;28;20515;-69
2022/02/20 02:29:04;;;;;;;15.23;13.80;;;4.30;99.90;;;;;;5044157;28;20452;-70
2022/02/20 02:31:30;;;;;;;14.73;13.47;;;4.20;99.90;;;;;;5048436;28;20469;-70
2022/02/20 02:33:59;;;;;;;16.73;14.03;;;4.20;99.90;;;;;;5041571;28;20467;-70
2022/02/20 02:36:26;;;;;;;15.73;13.93;;;4.20;99.90;;;;;;5036057;28;20661;-70
2022/02/20 02:38:53;;;;;;;15.43;14.03;;;4.10;99.90;;;;;;5041118;28;20475;-69
2022/02/20 02:41:22;;;;;;;14.43;13.23;;;4.10;99.90;;;;;;5038256;28;20646;-69
2022/02/20 02:43:51;;;;;;;15.43;14.33;;;4.10;99.90;;;;;;5042398;28;20475;-70
2022/02/20 02:46:19;;;;;;;16.63;15.20;;;4.00;99.90;;;;;;5045668;28;20496;-69
2022/02/20 02:48:48;;;;;;;16.40;15.17;;;4.00;99.90;;;;;;5041126;28;20462;-70
2022/02/20 02:51:16;;;;;;;17.00;15.43;;;4.00;99.90;;;;;;5037836;28;20515;-69
2022/02/20 02:53:43;;;;;;;17.10;15.80;;;4.00;99.90;;;;;;5039727;28;20464;-69
2022/02/20 02:56:10;;;;;;;17.13;15.70;;;4.00;99.90;;;;;;5040927;28;20914;-69
2022/02/20 02:58:39;;;;;;;17.70;16.00;;;4.00;99.90;;;;;;5037085;28;20461;-69
2022/02/20 03:01:05;;;;;;;19.87;17.17;;;3.90;99.90;;;;;;5043420;28;20452;-70
2022/02/20 03:03:32;;;;;;;17.73;16.13;;;3.90;99.90;;;;;;5037285;28;20461;-69
2022/02/20 03:06:00;;;;;;;17.47;15.90;;;3.80;99.90;;;;;;5037416;28;20483;-69
2022/02/20 03:08:29;;;;;;;20.20;18.27;;;3.80;99.90;;;;;;5040848;28;20488;-69
2022/02/20 03:10:56;;;;;;;16.97;15.47;;;3.80;99.90;;;;;;5042289;28;20472;-69
2022/02/20 03:13:23;;;;;;;17.50;16.03;;;3.80;99.90;;;;;;5043430;28;20464;-69
2022/02/20 03:15:53;;;;;;;19.60;17.90;;;3.80;99.90;;;;;;5039974;28;20460;-69
2022/02/20 03:18:20;;;;;;;20.10;18.20;;;3.80;99.90;;;;;;5040538;28;20554;-69
2022/02/20 03:20:47;;;;;;;19.60;18.00;;;3.80;99.90;;;;;;5036835;28;20460;-70
2022/02/20 03:23:15;;;;;;;21.83;17.77;;;3.80;99.90;;;;;;5044390;28;20831;-70
2022/02/20 03:25:42;;;;;;;18.40;16.90;;;3.80;99.90;;;;;;5041767;28;20993;-69
2022/02/20 03:28:10;;;;;;;19.27;17.20;;;3.80;99.90;;;;;;5039557;28;20463;-69
2022/02/20 03:30:37;;;;;;;20.80;18.73;;;3.80;99.90;;;;;;5046429;28;20467;-70
2022/02/20 03:33:06;;;;;;;19.53;17.83;;;3.80;99.90;;;;;;5044236;28;21028;-69
2022/02/20 03:35:34;;;;;;;17.80;16.30;;;3.80;99.90;;;;;;5037637;28;20684;-69
2022/02/20 03:38:01;;;;;;;18.90;17.30;;;3.80;99.90;;;;;;5038832;28;20568;-70
2022/02/20 03:40:28;;;;;;;19.23;17.60;;;3.70;99.90;;;;;;5040674;28;20816;-70
2022/02/20 03:42:55;;;;;;;19.37;17.30;;;3.70;99.90;;;;;;5038837;28;20460;-70
2022/02/20 03:45:22;;;;;;;19.00;17.47;;;3.60;99.90;;;;;;5047347;28;20460;-70
2022/02/20 03:47:51;;;;;;;19.17;17.57;;;3.60;99.90;;;;;;5038395;28;20506;-69
2022/02/20 03:50:20;;;;;;;20.40;18.40;;;3.60;99.90;;;;;;5038894;28;20487;-70
2022/02/20 03:52:48;;;;;;;19.60;17.90;;;3.50;99.90;;;;;;5037611;28;20456;-69
2022/02/20 03:55:15;;;;;;;19.70;17.90;;;3.40;99.90;;;;;;5039106;28;20559;-69
2022/02/20 03:57:42;;;;;;;20.50;18.43;;;3.40;99.90;;;;;;5041901;28;20469;-69
2022/02/20 04:00:12;;;;;;;19.93;18.50;;;3.30;99.90;;;;;;5039758;28;20495;-69
2022/02/20 04:02:39;;;;;;;23.63;17.90;;;3.40;99.90;;;;;;5040754;28;20544;-69
2022/02/20 04:05:08;;;;;;;21.37;17.70;;;3.40;99.90;;;;;;5038191;28;20464;-69
2022/02/20 04:07:37;;;;;;;19.77;17.97;;;3.40;99.90;;;;;;5041294;28;20479;-70
2022/02/20 04:10:06;;;;;;;19.10;17.47;;;3.40;99.90;;;;;;5035909;28;20460;-69
2022/02/20 04:12:34;;;;;;;21.13;18.23;;;3.50;99.90;;;;;;5043014;28;20472;-69
2022/02/20 04:15:01;;;;;;;20.27;18.17;;;3.50;99.90;;;;;;5042219;28;20464;-69
2022/02/20 04:17:28;;;;;;;21.10;18.90;;;3.50;99.90;;;;;;5032831;28;20491;-69
2022/02/20 04:19:55;;;;;;;19.83;18.13;;;3.50;99.90;;;;;;5039451;28;20467;-70
2022/02/20 04:22:22;;;;;;;20.70;19.00;;;3.50;99.90;;;;;;5042657;28;20462;-70
2022/02/20 04:24:51;;;;;;;21.23;19.00;;;3.50;99.90;;;;;;5044697;28;20461;-69
2022/02/20 04:27:17;;;;;;;21.80;19.33;;;3.50;99.90;;;;;;5043330;28;21013;-70
2022/02/20 04:29:44;;;;;;;19.90;18.37;;;3.50;99.90;;;;;;5039476;28;20549;-69
2022/02/20 04:32:11;;;;;;;19.00;17.27;;;3.50;99.90;;;;;;5036632;28;20467;-69
2022/02/20 04:34:38;;;;;;;18.80;16.97;;;3.60;99.90;;;;;;5036039;28;20455;-69
2022/02/20 04:37:05;;;;;;;20.87;18.90;;;3.50;99.90;;;;;;5041733;28;20472;-69
2022/02/20 04:39:32;;;;;;;18.40;16.80;;;3.50;99.90;;;;;;5035033;28;20456;-69
2022/02/20 04:42:01;;;;;;;20.77;19.07;;;3.50;99.90;;;;;;5042822;28;20479;-69
2022/02/20 04:44:28;;;;;;;20.63;18.73;;;3.60;99.90;;;;;;5042015;28;20467;-69
2022/02/20 04:46:55;;;;;;;20.23;18.63;;;3.60;99.90;;;;;;5036354;28;20799;-70
2022/02/20 04:49:22;;;;;;;18.70;17.10;;;3.70;99.90;;;;;;5037859;28;20847;-69
2022/02/20 04:51:49;;;;;;;21.73;16.80;;;3.70;99.90;;;;;;5041085;28;20456;-70
2022/02/20 04:54:16;;;;;;;19.53;17.93;;;3.80;99.90;;;;;;5041845;28;20464;-69
2022/02/20 04:56:44;;;;;;;20.30;18.20;;;3.90;99.90;;;;;;5038624;28;20526;-69
2022/02/20 04:59:12;;;;;;;18.60;16.60;;;4.00;99.90;;;;;;5025736;28;20472;-70
2022/02/20 05:01:40;;;;;;;18.23;16.37;;;4.10;99.90;;;;;;5006084;28;20591;-70
2022/02/20 05:04:07;;;;;;;21.13;15.87;;;4.20;99.90;;;;;;5009481;28;20496;-70
2022/02/20 05:06:35;;;;;;;16.40;15.07;;;4.30;99.90;;;;;;5009420;28;20997;-70
2022/02/20 05:09:03;;;;;;;16.73;15.30;;;4.40;99.90;;;;;;5009050;28;20468;-71
2022/02/20 05:11:30;;;;;;;16.90;15.60;;;4.40;99.90;;;;;;5008747;28;20471;-71
2022/02/20 05:13:58;;;;;;;16.80;15.20;;;4.50;99.90;;;;;;5009703;28;20456;-71
2022/02/20 05:16:28;;;;;;;16.57;15.17;;;4.50;99.90;;;;;;5009765;28;20457;-70
2022/02/20 05:18:55;;;;;;;15.27;14.07;;;4.60;99.90;;;;;;5008223;28;20837;-70
2022/02/20 05:21:22;;;;;;;15.83;14.57;;;4.60;99.90;;;;;;5009144;28;20457;-71
2022/02/20 05:23:49;;;;;;;16.60;15.30;;;4.60;99.90;;;;;;5010318;28;20457;-70
2022/02/20 05:26:16;;;;;;;17.33;15.67;;;4.60;99.90;;;;;;5009240;28;20839;-71
2022/02/20 05:28:44;;;;;;;16.93;15.50;;;4.60;99.90;;;;;;5009429;28;20469;-71
2022/02/20 05:31:11;;;;;;;17.50;16.00;;;4.70;99.90;;;;;;5007479;28;20841;-70
2022/02/20 05:33:40;;;;;;;19.80;16.60;;;4.80;99.90;;;;;;5007826;28;20562;-70
2022/02/20 05:36:08;;;;;;;18.27;16.67;;;4.90;99.90;;;;;;5008759;28;21089;-70
2022/02/20 05:38:35;;;;;;;19.70;17.70;;;4.90;99.90;;;;;;5008142;28;20461;-70
2022/02/20 05:41:02;;;;;;;21.87;19.50;;;4.90;99.90;;;;;;5008698;28;20690;-70
2022/02/20 05:43:29;;;;;;;20.80;19.17;;;5.10;99.90;;;;;;5010651;28;20501;-70
2022/02/20 05:45:56;;;;;;;24.00;21.50;;;5.20;99.90;;;;;;5010092;28;20469;-69
2022/02/20 05:48:23;;;;;;;24.50;21.90;;;5.40;99.90;;;;;;5008533;28;21174;-70
2022/02/20 05:50:52;;;;;;;27.10;24.60;;;5.50;99.90;;;;;;5011944;28;20747;-70
2022/02/20 05:53:19;;;;;;;30.53;28.13;;;5.70;99.90;;;;;;5013600;28;20480;-70
2022/02/20 05:55:45;;;;;;;31.90;29.27;;;5.80;99.90;;;;;;5012560;28;20469;-70
2022/02/20 05:58:13;;;;;;;35.20;31.70;;;6.00;99.90;;;;;;5010987;28;20808;-70
2022/02/20 06:00:39;;;;;;;35.50;32.30;;;6.10;99.90;;;;;;5012326;28;20470;-70
2022/02/20 06:03:06;;;;;;;35.43;32.10;;;6.20;99.90;;;;;;5013534;28;20452;-70
2022/02/20 06:05:33;;;;;;;38.47;35.00;;;6.30;99.90;;;;;;5013657;28;21454;-70
2022/02/20 06:08:02;;;;;;;37.40;33.93;;;6.50;99.90;;;;;;5011360;28;20488;-70
2022/02/20 06:10:29;;;;;;;37.63;34.40;;;6.50;99.90;;;;;;5013719;28;20473;-70
2022/02/20 06:12:56;;;;;;;37.33;33.33;;;6.50;99.90;;;;;;5012745;28;20461;-70
2022/02/20 06:15:23;;;;;;;40.90;34.80;;;6.60;99.90;;;;;;5013510;28;20504;-70
2022/02/20 06:17:50;;;;;;;39.20;35.27;;;6.60;99.90;;;;;;5012792;28;20492;-70
2022/02/20 06:20:16;;;;;;;45.53;33.77;;;6.70;99.90;;;;;;5012150;28;20466;-70
2022/02/20 06:22:43;;;;;;;49.40;34.27;;;6.70;99.90;;;;;;5012757;28;20818;-71
2022/02/20 06:25:11;;;;;;;36.47;32.60;;;6.80;99.90;;;;;;5013045;28;20464;-70
2022/02/20 06:27:38;;;;;;;38.47;31.70;;;6.90;99.90;;;;;;5012004;28;20506;-71
2022/02/20 06:30:07;;;;;;;34.90;31.70;;;6.90;99.90;;;;;;5026493;28;20582;-70
2022/02/20 06:32:34;;;;;;;33.87;31.10;;;7.00;99.90;;;;;;5036651;28;20459;-71
2022/02/20 06:35:01;;;;;;;34.53;30.93;;;7.00;99.90;;;;;;5013287;28;20964;-71
2022/02/20 06:37:28;;;;;;;32.03;29.37;;;7.10;99.90;;;;;;5011986;28;20484;-71
2022/02/20 06:39:55;;;;;;;32.03;28.60;;;7.10;99.90;;;;;;5013407;28;20467;-71
2022/02/20 06:42:23;;;;;;;32.73;29.20;;;7.10;99.90;;;;;;5020526;28;20467;-70
2022/02/20 06:44:51;;;;;;;33.97;28.90;;;7.20;99.90;;;;;;5046893;28;20977;-71
2022/02/20 06:47:18;;;;;;;30.63;28.17;;;7.20;99.90;;;;;;5040308;28;20492;-71
2022/02/20 06:49:45;;;;;;;31.90;28.83;;;7.20;99.90;;;;;;5026647;28;20460;-71
2022/02/20 06:52:12;;;;;;;49.60;29.20;;;7.30;99.90;;;;;;5031777;28;20463;-71
2022/02/20 06:54:39;;;;;;;30.40;27.20;;;7.30;99.90;;;;;;5041862;28;20843;-71
2022/02/20 06:57:06;;;;;;;36.43;28.60;;;7.30;99.90;;;;;;5042243;28;20479;-71
2022/02/20 06:59:35;;;;;;;43.53;27.90;;;7.30;99.90;;;;;;5037858;28;20456;-70
2022/02/20 07:02:02;;;;;;;32.00;29.00;;;7.40;99.90;;;;;;5011756;28;20529;-71
2022/02/20 07:04:29;;;;;;;32.77;27.60;;;7.40;99.90;;;;;;5011001;28;20463;-72
2022/02/20 07:06:56;;;;;;;30.17;26.93;;;7.40;99.90;;;;;;5009865;28;20475;-70
2022/02/20 07:09:23;;;;;;;34.47;27.80;;;7.50;99.90;;;;;;5008673;28;20467;-71
2022/02/20 07:11:49;;;;;;;29.00;26.30;;;7.50;99.90;;;;;;5010045;28;20483;-71
2022/02/20 07:14:17;;;;;;;40.23;28.70;;;7.50;99.90;;;;;;5039723;28;20456;-71
2022/02/20 07:16:45;;;;;;;41.43;29.60;;;7.50;99.90;;;;;;5024350;28;20946;-71
2022/02/20 07:19:12;;;;;;;30.80;28.13;;;7.50;99.90;;;;;;5009325;28;20484;-71
2022/02/20 07:21:39;;;;;;;38.33;26.87;;;7.50;99.90;;;;;;5010809;28;20472;-71
2022/02/20 07:24:06;;;;;;;28.57;25.63;;;7.50;99.90;;;;;;5010346;28;20451;-72
2022/02/20 07:26:34;;;;;;;31.00;26.20;;;7.60;99.90;;;;;;5013416;28;20803;-72
2022/02/20 07:29:01;;;;;;;29.70;26.70;;;7.60;99.90;;;;;;5018554;28;20495;-72
2022/02/20 07:31:28;;;;;;;29.30;26.30;;;7.60;99.90;;;;;;5030654;28;20464;-72
2022/02/20 07:33:57;;;;;;;28.40;26.20;;;7.60;99.90;;;;;;5018416;28;20459;-71
2022/02/20 07:36:24;;;;;;;26.30;23.67;;;7.70;99.90;;;;;;5011536;28;20563;-71
2022/02/20 07:38:51;;;;;;;26.10;24.03;;;7.70;99.90;;;;;;5039008;28;20467;-72
2022/02/20 07:41:18;;;;;;;28.03;25.23;;;7.70;99.90;;;;;;5038240;28;20460;-72
2022/02/20 07:43:49;;;;;;;28.40;25.40;;;7.70;99.90;;;;;;5039567;28;20518;-71
2022/02/20 07:46:17;;;;;;;34.87;25.37;;;7.80;99.90;;;;;;5021025;28;20463;-70
2022/02/20 07:48:45;;;;;;;27.70;25.57;;;7.80;99.90;;;;;;5007361;28;21070;-72
2022/02/20 07:51:13;;;;;;;28.20;25.40;;;7.80;99.90;;;;;;5008046;28;20460;-72
2022/02/20 07:53:41;;;;;;;28.07;25.50;;;7.80;99.90;;;;;;5007340;28;20527;-71
2022/02/20 07:56:08;;;;;;;26.40;23.83;;;7.90;99.90;;;;;;5008676;28;20888;-72
2022/02/20 07:58:36;;;;;;;25.57;23.53;;;7.90;99.90;;;;;;5005707;28;20463;-72
2022/02/20 08:01:04;;;;;;;25.30;23.20;;;7.90;99.90;;;;;;5004953;28;20479;-72
2022/02/20 08:03:31;;;;;;;26.23;23.63;;;7.90;99.90;;;;;;5007532;28;20480;-72
2022/02/20 08:05:59;;;;;;;25.07;22.97;;;8.00;99.90;;;;;;5031410;28;20459;-72
2022/02/20 08:08:28;;;;;;;27.00;24.23;;;8.00;99.90;;;;;;5005821;28;21246;-72
2022/02/20 08:10:55;;;;;;;30.07;23.13;;;8.00;99.90;;;;;;5007250;28;20468;-71
2022/02/20 08:13:22;;;;;;;25.80;23.10;;;8.10;99.90;;;;;;5007583;28;20564;-71
2022/02/20 08:15:49;;;;;;;25.30;23.40;;;8.10;99.90;;;;;;5007469;28;20464;-72
2022/02/20 08:18:16;;;;;;;25.20;23.27;;;8.10;99.90;;;;;;5005576;28;20599;-72
2022/02/20 08:20:44;;;;;;;26.23;23.53;;;8.20;99.90;;;;;;5006423;28;20481;-71
2022/02/20 08:23:11;;;;;;;26.97;25.00;;;8.20;99.90;;;;;;5008279;28;20464;-71
2022/02/20 08:25:40;;;;;;;25.67;23.87;;;8.20;99.90;;;;;;5007233;28;20472;-71
2022/02/20 08:28:07;;;;;;;25.03;23.30;;;8.20;99.90;;;;;;5006521;28;20497;-72
2022/02/20 08:30:34;;;;;;;24.30;22.60;;;8.20;99.90;;;;;;5003365;28;20978;-73
2022/02/20 08:33:02;;;;;;;26.37;23.67;;;8.20;99.90;;;;;;5005288;28;20718;-72
2022/02/20 08:35:29;;;;;;;24.53;22.37;;;8.30;99.90;;;;;;5008248;28;21041;-72
2022/02/20 08:37:56;;;;;;;24.67;22.93;;;8.30;99.90;;;;;;5008522;28;20838;-72
2022/02/20 08:40:23;;;;;;;24.90;23.10;;;8.30;99.90;;;;;;5006567;28;20475;-71
2022/02/20 08:42:51;;;;;;;24.03;22.23;;;8.30;99.90;;;;;;5022791;28;20829;-71
2022/02/20 08:45:18;;;;;;;26.70;23.83;;;8.30;99.90;;;;;;5035401;28;20488;-72
2022/02/20 08:47:46;;;;;;;23.90;22.07;;;8.30;99.90;;;;;;5037912;28;20510;-72
2022/02/20 08:50:15;;;;;;;24.03;22.50;;;8.40;99.90;;;;;;5040004;28;20934;-71
2022/02/20 08:52:45;;;;;;;30.63;21.97;;;8.40;99.90;;;;;;5006820;28;20996;-72
2022/02/20 08:55:12;;;;;;;23.40;21.73;;;8.40;99.90;;;;;;5008293;28;20859;-71
2022/02/20 08:57:41;;;;;;;24.17;22.30;;;8.50;99.90;;;;;;5008109;28;20468;-71
2022/02/20 09:00:11;;;;;;;25.27;22.77;;;8.50;99.90;;;;;;5007663;28;21161;-71
2022/02/20 09:02:38;;;;;;;24.73;23.10;;;8.50;99.90;;;;;;5008119;28;20468;-70
2022/02/20 09:05:06;;;;;;;24.33;22.43;;;8.50;99.90;;;;;;5007426;28;20610;-72
2022/02/20 09:07:33;;;;;;;24.90;23.00;;;8.60;99.90;;;;;;5007775;28;20466;-71
2022/02/20 09:10:00;;;;;;;23.33;21.50;;;8.60;99.90;;;;;;5006069;28;20464;-72
2022/02/20 09:12:27;;;;;;;24.33;22.50;;;8.60;99.90;;;;;;5007822;28;22731;-72
2022/02/20 09:14:54;;;;;;;22.73;21.33;;;8.70;99.90;;;;;;5007512;28;20903;-72
2022/02/20 09:17:23;;;;;;;23.13;21.37;;;8.70;99.90;;;;;;5008068;28;21276;-71
2022/02/20 09:19:50;;;;;;;23.67;21.50;;;8.70;99.90;;;;;;5006183;28;20942;-71
2022/02/20 09:22:17;;;;;;;23.57;21.87;;;8.80;99.90;;;;;;5007373;28;20474;-72
2022/02/20 09:24:44;;;;;;;23.80;22.10;;;8.80;99.90;;;;;;5008854;28;20487;-70
2022/02/20 09:27:11;;;;;;;23.03;21.00;;;8.80;99.90;;;;;;5011850;28;20460;-70
2022/02/20 09:29:38;;;;;;;22.40;20.60;;;8.90;99.90;;;;;;5012199;28;20928;-70
2022/02/20 09:32:06;;;;;;;20.67;19.47;;;9.00;99.90;;;;;;5011089;28;20456;-71
2022/02/20 09:34:34;;;;;;;20.47;19.27;;;8.90;99.90;;;;;;5012658;28;20780;-72
2022/02/20 09:37:02;;;;;;;21.17;19.67;;;8.90;99.90;;;;;;5023120;28;20459;-72
2022/02/20 09:39:29;;;;;;;22.23;20.23;;;8.90;99.90;;;;;;5039075;28;20466;-72
2022/02/20 09:41:58;;;;;;;21.27;19.87;;;8.90;99.90;;;;;;5009895;28;20559;-72
2022/02/20 09:44:27;;;;;;;21.37;19.87;;;8.80;99.90;;;;;;5010921;28;20787;-71
2022/02/20 09:46:55;;;;;;;22.53;21.03;;;8.80;99.90;;;;;;5011315;28;20511;-71
2022/02/20 09:49:26;;;;;;;21.67;20.27;;;8.90;99.90;;;;;;5011328;28;20527;-72
2022/02/20 09:51:55;;;;;;;22.50;20.83;;;8.90;99.90;;;;;;5011336;28;20461;-71
2022/02/20 09:54:22;;;;;;;22.40;20.80;;;8.90;99.90;;;;;;5011533;28;20866;-71
2022/02/20 09:56:49;;;;;;;23.80;21.73;;;8.90;99.90;;;;;;5010611;28;20464;-73
2022/02/20 09:59:16;;;;;;;22.53;20.93;;;8.90;99.90;;;;;;5010981;28;20579;-72
2022/02/20 10:02:08;;;;;;;22.97;20.70;;;9.00;99.90;;;;;;5010493;28;20467;-71
2022/02/20 10:04:40;;;;;;;23.20;21.43;;;8.90;99.90;;;;;;5008416;28;20471;-71
2022/02/20 10:07:25;;;;;;;22.77;21.33;;;8.90;99.90;;;;;;5011010;28;20490;-71
2022/02/20 10:09:53;;;;;;;24.33;22.30;;;9.00;99.90;;;;;;5010011;28;20553;-70
2022/02/20 10:12:21;;;;;;;22.50;20.80;;;9.10;99.90;;;;;;5010533;28;20464;-71
2022/02/20 10:14:48;;;;;;;23.57;21.67;;;9.20;99.90;;;;;;5036458;28;20455;-72
2022/02/20 10:17:16;;;;;;;22.63;20.73;;;9.30;99.90;;;;;;5037556;28;20491;-71
2022/02/20 10:19:57;;;;;;;23.03;20.17;;;9.40;99.90;;;;;;5038457;28;21272;-72
2022/02/20 10:22:33;;;;;;;21.17;19.27;;;9.50;99.90;;;;;;5020260;28;20557;-71
2022/02/20 10:25:02;;;;;;;19.20;17.80;;;9.60;99.90;;;;;;5010992;28;20977;-72
2022/02/20 10:27:29;;;;;;;17.87;16.37;;;9.70;99.90;;;;;;5012829;28;20473;-72
2022/02/20 10:30:12;;;;;;;18.73;17.13;;;9.70;99.90;;;;;;5005750;28;22999;-72
2022/02/20 10:32:39;;;;;;;19.43;16.30;;;10.00;99.90;;;;;;5008756;28;20457;-72
2022/02/20 10:35:11;;;;;;;16.53;15.30;;;10.10;99.90;;;;;;5009320;28;21080;-71
2022/02/20 10:37:39;;;;;;;17.97;16.20;;;10.10;99.90;;;;;;5010583;28;21169;-72
2022/02/20 10:40:26;;;;;;;17.33;15.80;;;10.00;99.90;;;;;;5008559;28;20468;-72
2022/02/20 10:42:54;;;;;;;16.10;15.00;;;10.10;99.90;;;;;;5015496;28;20479;-70
2022/02/20 10:45:33;;;;;;;15.57;14.37;;;10.10;99.90;;;;;;5007669;28;21303;-71
2022/02/20 10:48:01;;;;;;;15.13;14.13;;;10.00;99.90;;;;;;5008440;28;21037;-70
2022/02/20 10:50:30;;;;;;;15.63;14.50;;;10.00;99.90;;;;;;5008404;28;21313;-72
2022/02/20 10:53:10;;;;;;;15.77;14.60;;;10.00;99.90;;;;;;5008068;28;20468;-71
2022/02/20 10:55:39;;;;;;;14.87;13.70;;;10.10;99.90;;;;;;5034280;28;20997;-70
2022/02/20 10:58:10;;;;;;;13.77;12.60;;;10.10;99.90;;;;;;5037178;28;20500;-71
2022/02/20 11:00:47;;;;;;;13.07;12.03;;;10.20;99.90;;;;;;5041986;28;20474;-71
2022/02/20 11:03:14;;;;;;;13.07;12.17;;;10.30;99.90;;;;;;5024648;28;20475;-70
2022/02/20 11:05:41;;;;;;;13.07;12.00;;;10.30;99.90;;;;;;5010005;28;21288;-71
2022/02/20 11:08:12;;;;;;;12.53;11.93;;;10.20;99.90;;;;;;5009227;28;20476;-71
2022/02/20 11:10:39;;;;;;;15.37;13.83;;;10.20;99.90;;;;;;5006967;28;20457;-71
2022/02/20 11:13:10;;;;;;;13.83;12.47;;;10.10;99.90;;;;;;5007700;28;20469;-71
2022/02/20 11:15:38;;;;;;;22.07;11.87;;;10.10;99.90;;;;;;5008707;28;20479;-70
2022/02/20 11:18:07;;;;;;;15.50;14.30;;;10.00;99.90;;;;;;5008958;28;20613;-70
2022/02/20 11:20:36;;;;;;;17.23;15.60;;;9.90;99.90;;;;;;5008890;28;20719;-70
2022/02/20 11:23:06;;;;;;;17.00;15.80;;;9.80;99.90;;;;;;5008825;28;20473;-69
2022/02/20 11:25:36;;;;;;;16.97;15.73;;;9.70;99.90;;;;;;5008782;28;20478;-72
2022/02/20 11:28:05;;;;;;;16.57;15.57;;;9.70;99.90;;;;;;5009254;28;20472;-72
2022/02/20 11:30:35;;;;;;;18.90;16.90;;;9.70;99.90;;;;;;5006466;28;20503;-70
2022/02/20 11:33:06;;;;;;;17.40;15.93;;;9.80;99.90;;;;;;5014032;28;20487;-69
2022/02/20 11:35:38;;;;;;;28.10;22.43;;;9.80;99.90;;;;;;5047914;28;20466;-70
2022/02/20 11:38:08;;;;;;;29.27;26.60;;;9.70;99.90;;;;;;5020887;28;20465;-71
2022/02/20 11:43:44;;;;;;;28.00;25.20;;;9.70;99.90;;;;;;5085310;27;21077;-71
2022/02/20 11:46:14;;;;;;;28.13;25.03;;;9.50;99.90;;;;;;5084674;28;20905;-71
2022/02/20 11:49:19;;;;;;;25.77;23.30;;;9.50;99.90;;;;;;5084271;28;20558;-72
2022/02/20 11:51:58;;;;;;;26.00;23.37;;;9.50;99.90;;;;;;5084839;28;20470;-72
2022/02/20 11:54:25;;;;;;;27.10;23.80;;;9.50;99.90;;;;;;5085036;28;21080;-71
2022/02/20 11:57:25;;;;;;;24.53;22.63;;;9.50;99.90;;;;;;5085255;28;20973;-72
2022/02/20 12:00:14;;;;;;;31.43;22.80;;;9.50;99.90;;;;;;5084997;28;20667;-71
2022/02/20 12:03:17;;;;;;;25.97;23.10;;;9.50;99.90;;;;;;5084479;27;20585;-71
2022/02/20 12:06:25;;;;;;;24.43;22.10;;;9.50;99.90;;;;;;5075853;28;20978;-71
2022/02/20 12:08:56;;;;;;;28.43;23.20;;;9.60;99.90;;;;;;5084868;27;20474;-71
2022/02/20 12:11:24;;;;;;;25.00;22.30;;;9.60;99.90;;;;;;5084870;28;20679;-71
2022/02/20 12:13:53;;;;;;;24.17;21.90;;;9.60;99.90;;;;;;5083807;28;20456;-71
2022/02/20 12:16:27;;;;;;;38.70;22.63;;;9.60;99.90;;;;;;5084370;28;20998;-72
2022/02/20 12:19:20;;;;;;;26.77;22.70;;;9.70;99.90;;;;;;5084520;28;21037;-70
2022/02/20 12:21:55;;;;;;;24.67;22.27;;;9.70;99.90;;;;;;5083201;28;20488;-71
2022/02/20 12:24:24;;;;;;;24.67;22.50;;;9.70;99.90;;;;;;5084689;28;20578;-72
2022/02/20 12:26:55;;;;;;;25.57;23.33;;;9.70;99.90;;;;;;5084505;28;20464;-72
2022/02/20 12:29:24;;;;;;;26.73;22.57;;;9.70;99.90;;;;;;5083066;28;20492;-72
2022/02/20 12:32:16;;;;;;;25.37;23.17;;;9.80;99.90;;;;;;5083453;28;20464;-72
2022/02/20 12:35:03;;;;;;;29.67;23.43;;;9.80;99.90;;;;;;5084480;27;20465;-72
2022/02/20 12:37:32;;;;;;;24.00;21.50;;;9.80;99.90;;;;;;5084417;28;20476;-72
2022/02/20 12:40:05;;;;;;;24.20;22.50;;;9.90;99.90;;;;;;5083973;28;20465;-72
2022/02/20 12:42:36;;;;;;;25.63;23.10;;;9.80;99.90;;;;;;5083189;27;20518;-72
2022/02/20 12:45:10;;;;;;;25.17;22.77;;;9.90;99.90;;;;;;5084128;28;20453;-71
2022/02/20 12:47:41;;;;;;;23.13;21.00;;;9.80;99.90;;;;;;5083509;28;20461;-71